Time;durP1;ratioP1;P1;durP2;ratioP2;P2;SDS_P1;SDS_P2;PMS_P1;PMS_P2;Temp;Humidity;BMP_temperature;BMP_pressure;BME280_temperature;BME280_humidity;BME280_pressure;Samples;Min_cycle;Max_cycle;Signal;HPM_P1;HPM_P2
2022/06/18 02:03:29;;;;;;;22.23;10.17;;;;;;;-145.18;100.00;46529.53;4175359;23;20417;-83
2022/06/18 02:05:55;;;;;;;18.07;10.20;;;;;;;-145.18;100.00;46527.56;4878161;29;20037;-83
2022/06/18 02:08:21;;;;;;;20.50;11.27;;;;;;;-145.18;100.00;46535.38;4878915;29;20033;-82
2022/06/18 02:11:07;;;;;;;24.40;11.87;;;;;;;-145.18;100.00;46617.41;4878748;29;20056;-83
2022/06/18 02:13:37;;;;;;;24.43;14.53;;;;;;;-145.18;100.00;46660.41;4867945;29;20076;-83
2022/06/18 02:16:09;;;;;;;18.97;14.10;;;;;;;-145.18;100.00;46654.53;4878934;29;20065;-81
2022/06/18 02:18:36;;;;;;;24.83;15.07;;;;;;;-145.18;100.00;46648.69;4879008;29;20037;-83
2022/06/18 02:21:07;;;;;;;20.43;14.40;;;;;;;-145.18;100.00;46644.78;4879149;29;20045;-82
2022/06/18 02:23:33;;;;;;;19.67;13.63;;;;;;;-145.18;100.00;46660.41;4879295;29;20036;-82
2022/06/18 02:25:59;;;;;;;22.40;14.37;;;;;;;-145.18;100.00;46660.41;4879031;29;20037;-82
2022/06/18 02:28:33;;;;;;;21.83;14.67;;;;;;;-145.18;100.00;46679.94;4878952;29;20049;-82
2022/06/18 02:31:00;;;;;;;21.43;13.43;;;;;;;-145.18;100.00;46660.41;4878720;29;20021;-82
2022/06/18 02:33:47;;;;;;;23.00;13.27;;;;;;;-145.18;100.00;46677.97;4878748;29;20033;-82
2022/06/18 02:36:23;;;;;;;22.33;12.90;;;;;;;-145.18;100.00;46679.94;4879025;29;20037;-82
2022/06/18 02:38:55;;;;;;;19.90;12.97;;;;;;;-145.18;100.00;46642.81;4878543;29;20057;-82
2022/06/18 02:41:22;;;;;;;21.43;12.87;;;;;;;-145.18;100.00;46642.81;4878894;29;20049;-82
2022/06/18 02:43:47;;;;;;;23.30;13.83;;;;;;;-145.18;100.00;46640.88;4878355;29;20037;-82
2022/06/18 02:46:13;;;;;;;19.50;13.00;;;;;;;-145.18;100.00;46679.94;4878775;29;20037;-81
2022/06/18 02:48:40;;;;;;;19.00;12.43;;;;;;;-145.18;100.00;46677.97;4878627;29;20173;-82
2022/06/18 02:51:07;;;;;;;20.20;12.03;;;;;;;-145.18;100.00;46642.81;4878166;29;20072;-82
2022/06/18 02:53:33;;;;;;;17.67;11.00;;;;;;;-145.18;100.00;46642.81;4878096;29;20044;-81
2022/06/18 02:56:01;;;;;;;16.93;11.27;;;;;;;-145.18;100.00;46642.81;4876977;29;20037;-81
2022/06/18 02:58:30;;;;;;;17.47;11.77;;;;;;;-145.18;100.00;46644.78;4877694;29;20093;-81
2022/06/18 03:01:02;;;;;;;21.30;12.07;;;;;;;-145.18;100.00;46642.81;4877268;29;20033;-82
2022/06/18 03:03:33;;;;;;;15.20;10.07;;;;;;;-145.18;100.00;46648.69;4842984;29;20125;-82
2022/06/18 03:05:59;;;;;;;15.60;12.33;;;;;;;-145.18;100.00;46644.78;4859447;29;20072;-83
2022/06/18 03:08:27;;;;;;;26.27;11.30;;;;;;;-145.18;100.00;46646.72;4859205;29;20064;-82
2022/06/18 03:13:36;;;;;;;24.30;9.27;;;;;;;-145.18;100.00;46642.81;4857932;29;20113;-80
2022/06/18 03:16:03;;;;;;;15.10;9.90;;;;;;;-145.18;100.00;46652.59;4858534;29;20045;-81
2022/06/18 03:18:30;;;;;;;14.93;9.00;;;;;;;-145.18;100.00;46656.50;4858492;29;20042;-81
2022/06/18 03:21:05;;;;;;;17.43;8.33;;;;;;;-145.18;100.00;46656.50;4858424;29;20069;-80
2022/06/18 03:23:31;;;;;;;10.77;7.83;;;;;;;-145.18;100.00;46650.63;4857102;29;20041;-81
2022/06/18 03:25:57;;;;;;;18.77;8.10;;;;;;;-145.18;100.00;46648.69;4859557;29;20021;-81
2022/06/18 03:28:24;;;;;;;13.97;8.07;;;;;;;-145.18;100.00;46650.63;4852267;29;20240;-81
2022/06/18 03:30:49;;;;;;;17.63;8.03;;;;;;;-145.18;100.00;46650.63;4858599;29;20037;-81
2022/06/18 03:33:15;;;;;;;18.70;8.93;;;;;;;-145.18;100.00;46652.59;4849717;29;20042;-82
2022/06/18 03:35:43;;;;;;;16.97;8.03;;;;;;;-145.18;100.00;46650.63;4843512;29;20044;-82
2022/06/18 03:38:10;;;;;;;20.87;8.40;;;;;;;-145.18;100.00;46650.63;4872256;29;20044;-81
2022/06/18 03:40:36;;;;;;;13.83;8.10;;;;;;;-145.18;100.00;46650.63;4865914;29;20037;-80
2022/06/18 03:43:01;;;;;;;16.93;9.03;;;;;;;-145.18;100.00;46646.72;4866444;29;20089;-82
2022/06/18 03:45:29;;;;;;;11.87;8.17;;;;;;;-145.18;100.00;46652.59;4868714;29;20034;-82
2022/06/18 03:47:54;;;;;;;15.33;8.03;;;;;;;-145.18;100.00;46644.78;4873573;29;20061;-82
2022/06/18 03:50:20;;;;;;;15.33;7.93;;;;;;;-145.18;100.00;46650.63;4863616;29;20561;-82
2022/06/18 03:52:46;;;;;;;14.40;8.50;;;;;;;-145.18;100.00;46644.78;4868356;29;20044;-82
2022/06/18 03:55:13;;;;;;;18.40;8.47;;;;;;;-145.18;100.00;46677.97;4870190;29;20037;-81
2022/06/18 03:57:39;;;;;;;18.47;8.33;;;;;;;-145.18;100.00;46640.88;4860796;29;20565;-81
2022/06/18 04:00:12;;;;;;;17.57;8.30;;;;;;;-145.18;100.00;46646.72;4872340;29;20029;-81
2022/06/18 04:02:38;;;;;;;15.77;8.77;;;;;;;-145.18;100.00;46640.88;4865668;29;20182;-80
2022/06/18 04:05:03;;;;;;;14.63;7.93;;;;;;;-145.18;100.00;46646.72;4877003;29;20119;-81
2022/06/18 04:07:29;;;;;;;17.27;8.93;;;;;;;-145.18;100.00;46648.69;4876677;29;20045;-80
2022/06/18 04:09:56;;;;;;;20.87;8.20;;;;;;;-145.18;100.00;46644.78;4876932;29;20493;-81
2022/06/18 04:12:22;;;;;;;20.00;8.07;;;;;;;-145.18;100.00;46642.81;4876866;29;20187;-81
2022/06/18 04:14:47;;;;;;;14.90;8.13;;;;;;;-145.18;100.00;46644.78;4875285;29;20157;-81
2022/06/18 04:17:14;;;;;;;13.73;8.40;;;;;;;-145.18;100.00;46640.88;4876181;29;20060;-81
2022/06/18 04:19:40;;;;;;;19.00;8.57;;;;;;;-145.18;100.00;46638.91;4876728;29;20041;-81
2022/06/18 04:22:09;;;;;;;15.60;8.40;;;;;;;-145.18;100.00;46638.91;4876747;29;20033;-81
2022/06/18 04:24:35;;;;;;;13.60;8.07;;;;;;;-145.18;100.00;46636.94;4877224;29;20108;-82
2022/06/18 04:27:01;;;;;;;20.37;8.03;;;;;;;-145.18;100.00;46660.41;4876327;29;20124;-81
2022/06/18 04:29:28;;;;;;;23.27;8.83;;;;;;;-145.18;100.00;46660.41;4876497;29;20036;-81
2022/06/18 04:31:53;;;;;;;18.80;8.57;;;;;;;-145.18;100.00;46636.94;4876895;29;20402;-81
2022/06/18 04:34:19;;;;;;;15.17;8.13;;;;;;;-145.18;100.00;46660.41;4876637;29;20037;-81
2022/06/18 04:36:44;;;;;;;17.77;7.83;;;;;;;-145.18;100.00;46660.41;4876137;29;20446;-81
2022/06/18 04:39:11;;;;;;;17.60;7.33;;;;;;;-145.18;100.00;46660.41;4876454;29;20044;-82
2022/06/18 04:41:37;;;;;;;22.87;7.43;;;;;;;-145.18;100.00;46660.41;4876900;29;20060;-81
2022/06/18 04:44:03;;;;;;;16.87;7.37;;;;;;;-145.18;100.00;46660.41;4876428;29;20490;-81
2022/06/18 04:46:29;;;;;;;18.17;7.53;;;;;;;-145.18;100.00;46660.41;4876900;29;20033;-81
2022/06/18 04:48:54;;;;;;;18.73;7.77;;;;;;;-145.18;100.00;46660.41;4876199;29;20040;-82
2022/06/18 04:51:20;;;;;;;16.47;7.77;;;;;;;-145.18;100.00;46660.41;4876637;29;20029;-82
2022/06/18 04:53:45;;;;;;;14.07;7.17;;;;;;;-145.18;100.00;46660.41;4876257;29;20033;-81
2022/06/18 04:56:10;;;;;;;16.87;7.60;;;;;;;-145.18;100.00;46660.41;4876700;29;20056;-81
2022/06/18 04:58:36;;;;;;;19.50;7.60;;;;;;;-145.18;100.00;46660.41;4876245;29;20101;-81
2022/06/18 05:01:02;;;;;;;14.97;7.00;;;;;;;-145.18;100.00;46660.41;4876167;29;20125;-82
2022/06/18 05:03:27;;;;;;;19.37;8.03;;;;;;;-145.18;100.00;46660.41;4876339;29;20413;-83
2022/06/18 05:05:53;;;;;;;15.40;6.90;;;;;;;-145.18;100.00;46660.41;4876698;29;20037;-82
2022/06/18 05:08:18;;;;;;;15.77;7.03;;;;;;;-145.18;100.00;46633.06;4876716;29;20048;-82
2022/06/18 05:10:44;;;;;;;15.47;7.17;;;;;;;-145.18;100.00;46633.06;4875408;29;20119;-84
2022/06/18 05:13:11;;;;;;;15.13;7.23;;;;;;;-145.18;100.00;46660.41;4857897;29;20047;-83
2022/06/18 05:15:38;;;;;;;10.53;6.20;;;;;;;-145.18;100.00;46633.06;4858103;29;20049;-83
2022/06/18 05:18:05;;;;;;;15.03;7.03;;;;;;;-145.18;100.00;46636.94;4870536;29;20630;-84
2022/06/18 05:20:31;;;;;;;13.60;7.10;;;;;;;-145.18;100.00;46660.41;4876048;29;20045;-84
2022/06/18 05:22:56;;;;;;;14.77;6.70;;;;;;;-145.18;100.00;46631.09;4876670;29;20037;-84
2022/06/18 05:25:22;;;;;;;14.53;7.13;;;;;;;-145.18;100.00;46660.41;4878408;29;20068;-83
2022/06/18 05:27:48;;;;;;;20.73;8.03;;;;;;;-145.18;100.00;46660.41;4879516;29;20029;-83
2022/06/18 05:30:21;;;;;;;18.10;7.67;;;;;;;-145.18;100.00;46631.09;4874686;29;20083;-83
2022/06/18 05:32:47;;;;;;;17.73;7.60;;;;;;;-145.18;100.00;46633.06;4879687;29;20054;-84
2022/06/18 05:35:13;;;;;;;18.07;7.00;;;;;;;-145.18;100.00;46638.91;4879754;29;20094;-85
2022/06/18 05:37:39;;;;;;;19.77;7.33;;;;;;;-145.18;100.00;46636.94;4880779;29;20188;-82
2022/06/18 05:40:05;;;;;;;15.20;8.13;;;;;;;-145.18;100.00;46640.88;4879252;29;20157;-83
2022/06/18 05:42:32;;;;;;;15.43;6.83;;;;;;;-145.18;100.00;46640.88;4879751;29;20624;-84
2022/06/18 05:44:57;;;;;;;19.23;6.97;;;;;;;-145.18;100.00;46638.91;4880137;29;20032;-84
2022/06/18 05:47:31;;;;;;;18.07;7.20;;;;;;;-145.18;100.00;46642.81;4879191;29;20477;-85
2022/06/18 05:49:56;;;;;;;18.87;7.73;;;;;;;-145.18;100.00;46642.81;4879583;29;20037;-85
2022/06/18 05:52:23;;;;;;;28.37;7.40;;;;;;;-145.18;100.00;46644.78;4879918;29;20520;-84
2022/06/18 05:54:51;;;;;;;20.57;7.13;;;;;;;-145.18;100.00;46646.72;4879762;29;20110;-85
2022/06/18 05:57:19;;;;;;;20.03;6.80;;;;;;;-145.18;100.00;46642.81;4878564;29;20052;-84
2022/06/18 05:59:46;;;;;;;16.07;7.27;;;;;;;-145.18;100.00;46638.91;4879131;29;20093;-83
2022/06/18 06:02:13;;;;;;;14.87;7.13;;;;;;;-145.18;100.00;46636.94;4879105;29;20064;-84
2022/06/18 06:04:39;;;;;;;22.13;6.47;;;;;;;-145.18;100.00;46640.88;4879489;29;20120;-85
2022/06/18 06:07:06;;;;;;;21.03;7.93;;;;;;;-145.18;100.00;46640.88;4879042;29;20111;-84
2022/06/18 06:12:16;;;;;;;17.27;7.53;;;;;;;-145.18;100.00;46642.81;4879727;29;20215;-84
2022/06/18 06:14:42;;;;;;;27.43;8.87;;;;;;;-145.18;100.00;46640.88;4879103;29;20153;-84
2022/06/18 06:17:13;;;;;;;21.33;8.13;;;;;;;-145.18;100.00;46638.91;4878849;29;20047;-85
2022/06/18 06:19:38;;;;;;;20.87;9.07;;;;;;;-145.18;100.00;46638.91;4878647;29;20041;-85
2022/06/18 06:22:04;;;;;;;16.83;7.80;;;;;;;-145.18;100.00;46640.88;4878051;29;20506;-85
2022/06/18 06:24:29;;;;;;;23.10;7.80;;;;;;;-145.18;100.00;46636.94;4878225;29;20142;-86
2022/06/18 06:26:55;;;;;;;22.40;8.67;;;;;;;-145.18;100.00;46635.00;4878693;29;20041;-84
2022/06/18 06:29:20;;;;;;;18.10;7.20;;;;;;;-145.18;100.00;46633.06;4877324;29;20076;-84
2022/06/18 06:31:45;;;;;;;17.60;8.27;;;;;;;-145.18;100.00;46633.06;4879289;29;20053;-84
2022/06/18 06:34:11;;;;;;;20.00;8.37;;;;;;;-145.18;100.00;46633.06;4876474;29;20044;-84
2022/06/18 06:36:36;;;;;;;19.17;8.13;;;;;;;-145.18;100.00;46636.94;4878031;29;20068;-84
2022/06/18 06:39:03;;;;;;;17.67;7.37;;;;;;;-145.18;100.00;46636.94;4877987;29;20037;-84
2022/06/18 06:41:30;;;;;;;19.40;7.40;;;;;;;-145.18;100.00;46635.00;4878766;29;20096;-84
2022/06/18 06:43:56;;;;;;;23.90;7.80;;;;;;;-145.18;100.00;46631.09;4877340;29;20041;-85
2022/06/18 06:46:21;;;;;;;17.40;7.77;;;;;;;-145.18;100.00;46636.94;4878771;29;20037;-84
2022/06/18 06:48:46;;;;;;;19.87;7.87;;;;;;;-145.18;100.00;46633.06;4878555;29;20071;-85
2022/06/18 06:51:15;;;;;;;16.70;7.40;;;;;;;-145.18;100.00;46636.94;4878546;29;20541;-84
2022/06/18 06:53:41;;;;;;;18.97;7.93;;;;;;;-145.18;100.00;46633.06;4878296;29;20043;-84
2022/06/18 06:58:54;;;;;;;18.77;7.77;;;;;;;-145.18;100.00;46636.94;4878606;29;20044;-85
2022/06/18 07:01:19;;;;;;;17.50;7.47;;;;;;;-145.18;100.00;46636.94;4878189;29;20041;-83
2022/06/18 07:03:44;;;;;;;20.67;7.03;;;;;;;-145.18;100.00;46636.94;4878475;29;20136;-85
2022/06/18 07:06:10;;;;;;;19.97;8.53;;;;;;;-145.18;100.00;46633.06;4878489;29;20033;-84
2022/06/18 07:08:35;;;;;;;26.07;7.87;;;;;;;-145.18;100.00;46635.00;4878572;29;20041;-84
2022/06/18 07:11:01;;;;;;;15.40;7.67;;;;;;;-145.18;100.00;46629.13;4878694;29;20037;-85
2022/06/18 07:13:26;;;;;;;15.70;7.07;;;;;;;-145.18;100.00;46621.31;4878606;29;20041;-86
2022/06/18 07:15:53;;;;;;;16.60;7.50;;;;;;;-145.18;100.00;46631.09;4879046;29;20068;-85
2022/06/18 07:18:22;;;;;;;27.70;8.77;;;;;;;-145.18;100.00;46629.13;4878458;29;20505;-85
2022/06/18 07:20:48;;;;;;;20.33;8.87;;;;;;;-145.18;100.00;46617.41;4879291;29;20041;-85
2022/06/18 07:23:14;;;;;;;20.30;7.90;;;;;;;-145.18;100.00;46627.19;4878681;29;20474;-84
2022/06/18 07:25:40;;;;;;;16.57;8.50;;;;;;;-145.18;100.00;46597.88;4879442;29;20084;-84
2022/06/18 07:28:06;;;;;;;19.37;7.03;;;;;;;-145.18;100.00;46603.75;4877466;29;20041;-85
2022/06/18 07:30:32;;;;;;;16.90;7.87;;;;;;;-145.18;100.00;46574.44;4878453;29;20482;-85
2022/06/18 07:32:57;;;;;;;20.40;8.43;;;;;;;-145.18;100.00;46599.84;4876695;29;20037;-84
2022/06/18 07:35:26;;;;;;;19.70;8.23;;;;;;;-145.18;100.00;46593.97;4868182;29;20551;-85
2022/06/18 07:37:53;;;;;;;18.30;8.00;;;;;;;-145.18;100.00;46588.13;4868304;29;20110;-85
2022/06/18 07:40:20;;;;;;;18.90;8.97;;;;;;;-145.18;100.00;46570.53;4878473;29;20493;-85
2022/06/18 07:42:48;;;;;;;18.97;7.20;;;;;;;-145.18;100.00;46543.19;4877081;29;20041;-84
2022/06/18 07:45:20;;;;;;;19.20;8.70;;;;;;;-145.18;100.00;46519.75;4890268;29;20036;-85
2022/06/18 07:47:46;;;;;;;30.77;9.03;;;;;;;-145.18;100.00;46515.84;4896602;29;20032;-84
2022/06/18 07:50:13;;;;;;;19.63;7.97;;;;;;;-145.18;100.00;46508.03;4896896;29;20039;-86
2022/06/18 07:52:39;;;;;;;16.17;8.43;;;;;;;-145.18;100.00;46513.91;4896975;29;20036;-82
2022/06/18 07:55:06;;;;;;;17.30;8.33;;;;;;;-145.18;100.00;46511.94;4891126;29;20136;-83
2022/06/18 07:57:31;;;;;;;21.00;7.50;;;;;;;-145.18;100.00;46515.84;4878841;29;20460;-83
2022/06/18 07:59:57;;;;;;;21.20;9.03;;;;;;;-145.18;100.00;46510.00;4878000;29;20033;-83
2022/06/18 08:02:23;;;;;;;21.37;9.57;;;;;;;-145.18;100.00;46515.84;4877109;29;20049;-85
2022/06/18 08:04:48;;;;;;;19.17;8.80;;;;;;;-145.18;100.00;46510.00;4877555;29;20097;-85
2022/06/18 08:07:13;;;;;;;24.17;9.87;;;;;;;-145.18;100.00;46513.91;4877626;29;20049;-85
2022/06/18 08:09:39;;;;;;;20.27;8.90;;;;;;;-145.18;100.00;46511.94;4877192;29;20033;-85
2022/06/18 08:12:05;;;;;;;27.93;9.40;;;;;;;-145.18;100.00;46510.00;4877566;29;20036;-86
2022/06/18 08:14:31;;;;;;;27.43;9.93;;;;;;;-145.18;100.00;46494.38;4877653;29;20063;-85
2022/06/18 08:16:56;;;;;;;29.03;10.63;;;;;;;-145.18;100.00;46508.03;4875289;29;20115;-85
2022/06/18 08:19:21;;;;;;;26.00;11.40;;;;;;;-145.18;100.00;46510.00;4876169;29;20080;-83
2022/06/18 08:21:47;;;;;;;19.43;11.70;;;;;;;-145.18;100.00;46504.13;4875291;29;20044;-86
2022/06/18 08:24:20;;;;;;;25.57;11.40;;;;;;;-145.18;100.00;46506.09;4874768;29;20075;-82
2022/06/18 08:26:47;;;;;;;23.87;11.03;;;;;;;-145.18;100.00;46502.19;4875433;29;20037;-84
2022/06/18 08:29:19;;;;;;;21.37;9.90;;;;;;;-145.18;100.00;46498.28;4874393;29;20033;-84
2022/06/18 08:31:45;;;;;;;21.77;10.63;;;;;;;-145.18;100.00;46504.13;4875057;29;20511;-84
2022/06/18 08:34:11;;;;;;;20.67;10.50;;;;;;;-145.18;100.00;46492.41;4876478;29;20052;-84
2022/06/18 08:36:38;;;;;;;20.30;10.20;;;;;;;-145.18;100.00;46510.00;4875352;29;20399;-84
2022/06/18 08:39:05;;;;;;;22.67;10.23;;;;;;;-145.18;100.00;46498.28;4874544;29;20033;-82
2022/06/18 08:41:57;;;;;;;30.07;11.57;;;;;;;-145.18;100.00;46492.41;4873682;29;20087;-83
2022/06/18 08:44:47;;;;;;;26.70;12.00;;;;;;;-145.18;100.00;46502.19;4884486;29;20044;-84
2022/06/18 08:47:13;;;;;;;22.93;10.70;;;;;;;-145.18;100.00;46494.38;4893109;29;20040;-83
2022/06/18 08:49:59;;;;;;;20.40;9.90;;;;;;;-145.18;100.00;46496.31;4893240;29;20032;-84
2022/06/18 08:53:02;;;;;;;25.77;11.53;;;;;;;-145.18;100.00;46502.19;4895199;29;20071;-86
2022/06/18 08:55:46;;;;;;;27.73;10.70;;;;;;;-145.18;100.00;46502.19;4882640;29;20136;-86
2022/06/18 08:58:34;;;;;;;25.83;11.80;;;;;;;-145.18;100.00;46494.38;4856935;29;20117;-86
2022/06/18 09:01:19;;;;;;;21.07;11.23;;;;;;;-145.18;100.00;46519.75;4857240;29;20394;-86
2022/06/18 09:03:53;;;;;;;24.20;10.20;;;;;;;-145.18;100.00;46484.59;4857302;29;20419;-87
2022/06/18 09:06:37;;;;;;;23.33;11.17;;;;;;;-145.18;100.00;46494.38;4860234;29;20638;-86
2022/06/18 09:09:35;;;;;;;23.53;11.83;;;;;;;-145.18;100.00;46488.50;4857058;29;20138;-85
2022/06/18 09:12:10;;;;;;;21.97;10.90;;;;;;;-145.18;100.00;46502.19;4857676;29;20048;-87
2022/06/18 09:14:54;;;;;;;30.30;12.50;;;;;;;-145.18;100.00;46504.13;4857130;29;20140;-84
2022/06/18 09:17:23;;;;;;;26.03;11.37;;;;;;;-145.18;100.00;46492.41;4857861;29;20506;-84
2022/06/18 09:19:59;;;;;;;26.77;10.63;;;;;;;-145.18;100.00;46480.69;4857442;29;20109;-85
2022/06/18 09:22:26;;;;;;;21.87;9.10;;;;;;;-145.18;100.00;46476.78;4858207;29;20459;-86
2022/06/18 09:25:01;;;;;;;25.07;10.00;;;;;;;-145.18;100.00;46502.19;4857722;29;20030;-86
2022/06/18 09:27:37;;;;;;;20.87;8.97;;;;;;;-145.18;100.00;46472.88;4857710;29;20033;-85
2022/06/18 09:30:09;;;;;;;18.70;9.40;;;;;;;-145.18;100.00;46633.06;4857454;29;20025;-87
2022/06/18 09:32:46;;;;;;;18.90;9.40;;;;;;;-145.18;100.00;46691.66;4857808;29;20510;-86
2022/06/18 09:35:29;;;;;;;23.57;10.60;;;;;;;-145.18;100.00;46609.59;4858722;29;20391;-86
2022/06/18 09:38:06;;;;;;;22.38;10.48;;;;;;;-145.18;100.00;47058.91;4891252;29;20441;-82
2022/06/18 09:40:49;;;;;;;22.30;9.82;;;;;;;-145.18;100.00;47043.28;4876268;29;20501;-84
2022/06/18 09:43:33;;;;;;;23.48;9.55;;;;;;;-145.18;100.00;47058.91;4875415;29;20037;-85
2022/06/18 09:46:02;;;;;;;20.58;9.40;;;;;;;-145.18;100.00;46994.44;4876499;29;20036;-86
2022/06/18 09:48:28;;;;;;;19.13;9.88;;;;;;;-145.18;100.00;47035.44;4875357;29;20153;-86
2022/06/18 09:50:56;;;;;;;19.73;9.48;;;;;;;-145.18;100.00;47049.13;4865472;29;20033;-86
2022/06/18 09:53:34;;;;;;;21.70;10.27;;;;;;;-145.18;100.00;47027.63;4857021;29;20040;-83
2022/06/18 09:56:02;;;;;;;17.73;8.15;;;;;;;-145.18;100.00;47008.09;4857401;29;20061;-86
2022/06/18 09:58:34;;;;;;;16.25;8.23;;;;;;;-145.18;100.00;46994.44;4857391;29;20502;-84
2022/06/18 10:01:01;;;;;;;20.40;9.18;;;;;;;-145.18;100.00;47002.25;4857027;29;20030;-83
2022/06/18 10:06:57;;;;;;;17.83;9.75;;;;;;;-145.18;100.00;46961.22;4857793;29;20160;-83
2022/06/18 10:09:38;;;;;;;19.45;9.15;;;;;;;-145.18;100.00;46933.88;4858656;29;20098;-83
2022/06/18 10:12:26;;;;;;;20.73;9.00;;;;;;;-145.18;100.00;46955.34;4860518;29;20033;-82
2022/06/18 10:14:55;;;;;;;18.73;7.90;;;;;;;-145.18;100.00;46945.59;4860471;29;20069;-86
2022/06/18 10:17:41;;;;;;;25.10;7.57;;;;;;;-145.18;100.00;46957.31;4860234;29;20044;-85
2022/06/18 10:20:25;;;;;;;23.88;7.75;;;;;;;-145.18;100.00;46953.41;4859892;29;20042;-85
2022/06/18 10:23:09;;;;;;;18.50;8.80;;;;;;;-145.18;100.00;46922.16;4860738;29;20086;-85
2022/06/18 10:25:53;;;;;;;21.08;10.13;;;;;;;-145.18;100.00;46922.16;4860213;29;20061;-86
2022/06/18 10:28:37;;;;;;;19.92;10.88;;;;;;;-145.18;100.00;46906.53;4868767;29;20162;-85
2022/06/18 10:31:02;;;;;;;14.27;7.40;;;;;;;-145.18;100.00;46933.88;4877441;29;20045;-86
2022/06/18 10:33:46;;;;;;;19.77;7.72;;;;;;;-145.18;100.00;46920.19;4878452;29;20048;-85
2022/06/18 10:36:33;;;;;;;16.98;6.93;;;;;;;-145.18;100.00;46912.38;4878333;29;20580;-87
2022/06/18 10:39:11;;;;;;;14.35;6.72;;;;;;;-145.18;100.00;46902.63;4878511;29;20061;-86
2022/06/18 10:41:55;;;;;;;19.17;7.88;;;;;;;-145.18;100.00;46908.47;4878997;29;20044;-84
2022/06/18 10:44:40;;;;;;;23.08;8.23;;;;;;;-145.18;100.00;46888.94;4872562;29;20041;-85
2022/06/18 10:47:08;;;;;;;22.40;8.37;;;;;;;-145.18;100.00;46887.00;4875277;29;20037;-85
2022/06/18 10:49:34;;;;;;;14.45;5.15;;;;;;;-145.18;100.00;46877.22;4870621;29;20029;-84
2022/06/18 10:52:00;;;;;;;14.90;5.30;;;;;;;-145.18;100.00;46904.56;4851507;29;20402;-85
2022/06/18 10:54:34;;;;;;;23.67;6.28;;;;;;;-145.18;100.00;46908.47;4867547;29;20530;-85
2022/06/18 10:57:01;;;;;;;20.73;6.30;;;;;;;-145.18;100.00;46904.56;4866532;29;20479;-84
2022/06/18 10:59:29;;;;;;;17.33;5.40;;;;;;;-145.18;100.00;46879.19;4863431;29;20041;-84
2022/06/18 11:01:55;;;;;;;19.17;6.30;;;;;;;-145.18;100.00;46892.84;4859688;29;20037;-82
2022/06/18 11:04:28;;;;;;;16.50;7.75;;;;;;;-145.18;100.00;46871.38;4859240;29;20068;-85
2022/06/18 11:07:07;;;;;;;16.23;7.70;;;;;;;-145.18;100.00;46873.31;4859862;29;20048;-87
2022/06/18 11:09:50;;;;;;;19.17;7.75;;;;;;;-145.18;100.00;46859.63;4861628;29;20063;-86
2022/06/18 11:12:34;;;;;;;18.02;6.88;;;;;;;-145.18;100.00;46863.53;4869570;29;20137;-83
2022/06/18 11:15:01;;;;;;;18.67;7.57;;;;;;;-145.18;100.00;46847.91;4867986;29;20108;-86
2022/06/18 11:17:31;;;;;;;24.75;7.15;;;;;;;-145.18;100.00;46842.06;4864901;29;20052;-84
2022/06/18 11:20:16;;;;;;;16.73;6.85;;;;;;;-145.18;100.00;46851.81;4866705;29;20036;-84
2022/06/18 11:22:44;;;;;;;16.83;8.05;;;;;;;-145.18;100.00;46859.63;4862421;29;20098;-83
2022/06/18 11:25:26;;;;;;;19.35;5.97;;;;;;;-145.18;100.00;46875.28;4867494;29;20040;-84
2022/06/18 11:27:57;;;;;;;18.88;7.47;;;;;;;-145.18;100.00;46879.19;4862452;29;20072;-83
2022/06/18 11:30:29;;;;;;;22.50;6.95;;;;;;;-145.18;100.00;46879.19;4858919;29;20033;-83
2022/06/18 11:32:54;;;;;;;15.80;7.07;;;;;;;-145.18;100.00;46888.94;4861517;29;20032;-81
2022/06/18 11:35:25;;;;;;;17.90;6.53;;;;;;;-145.18;100.00;46875.28;4876864;29;20033;-84
2022/06/18 11:38:01;;;;;;;17.25;5.32;;;;;;;-145.18;100.00;46863.53;4862386;29;20136;-84
2022/06/18 11:40:27;;;;;;;17.27;5.55;;;;;;;-145.18;100.00;46855.72;4863893;29;20040;-83
2022/06/18 11:42:57;;;;;;;16.63;5.97;;;;;;;-145.18;100.00;46867.44;4868271;29;20525;-83
2022/06/18 11:45:30;;;;;;;17.77;5.13;;;;;;;-145.18;100.00;46867.44;4862444;29;20040;-84
2022/06/18 11:48:08;;;;;;;17.65;6.15;;;;;;;-145.18;100.00;46845.97;4872240;29;20076;-83
2022/06/18 11:50:38;;;;;;;17.33;5.40;;;;;;;-145.18;100.00;46853.78;4876879;29;20037;-83
2022/06/18 11:53:19;;;;;;;16.92;5.80;;;;;;;-145.18;100.00;46865.50;4876231;29;20037;-83
2022/06/18 11:55:50;;;;;;;15.43;4.70;;;;;;;-145.18;100.00;46873.31;4877454;29;20061;-81
2022/06/18 11:58:26;;;;;;;12.45;4.72;;;;;;;-145.18;100.00;46871.38;4876871;29;20033;-83
2022/06/18 12:01:17;;;;;;;19.73;5.20;;;;;;;-145.18;100.00;46863.53;4876159;29;20048;-81
2022/06/18 12:03:50;;;;;;;14.98;5.10;;;;;;;-145.18;100.00;46853.78;4863226;29;20097;-83
2022/06/18 12:06:31;;;;;;;12.93;5.07;;;;;;;-145.18;100.00;46853.78;4876256;29;20033;-82
2022/06/18 12:08:57;;;;;;;12.77;4.97;;;;;;;-145.18;100.00;46863.53;4867315;29;20037;-83
2022/06/18 12:11:36;;;;;;;21.13;6.50;;;;;;;-145.18;100.00;46865.50;4864003;29;20037;-83
2022/06/18 12:14:11;;;;;;;15.05;5.55;;;;;;;-145.18;100.00;46853.78;4872604;29;20059;-83
2022/06/18 12:16:55;;;;;;;15.43;5.30;;;;;;;-145.18;100.00;46865.50;4865662;29;20037;-83
2022/06/18 12:19:34;;;;;;;11.77;4.65;;;;;;;-145.18;100.00;46855.72;4876220;29;20037;-82
2022/06/18 12:22:17;;;;;;;12.90;5.00;;;;;;;-145.18;100.00;46851.81;4876020;29;20506;-83
2022/06/18 12:25:15;;;;;;;14.68;4.75;;;;;;;-145.18;100.00;46842.06;4876223;29;20033;-83
2022/06/18 12:28:00;;;;;;;16.75;5.05;;;;;;;-145.18;100.00;46853.78;4852686;29;20049;-82
2022/06/18 12:30:53;;;;;;;14.32;4.55;;;;;;;-145.18;100.00;46869.41;4876051;29;20044;-82
2022/06/18 12:33:44;;;;;;;14.18;4.38;;;;;;;-145.18;100.00;46861.59;4875069;29;20041;-81
2022/06/18 12:36:32;;;;;;;21.52;4.97;;;;;;;-145.18;100.00;46867.44;4876177;29;20033;-81
2022/06/18 12:39:12;;;;;;;14.65;4.97;;;;;;;-145.18;100.00;46869.41;4876035;29;20040;-81
2022/06/18 12:41:46;;;;;;;13.30;4.80;;;;;;;-145.18;100.00;46879.19;4875685;29;20036;-81
2022/06/18 12:44:33;;;;;;;14.90;4.63;;;;;;;-145.18;100.00;46863.53;4875788;29;20205;-81
2022/06/18 12:47:09;;;;;;;15.23;4.80;;;;;;;-145.18;100.00;46869.41;4874140;29;20045;-81
2022/06/18 12:49:40;;;;;;;15.65;4.90;;;;;;;-145.18;100.00;46861.59;4875982;29;20383;-82
2022/06/18 12:52:17;;;;;;;13.00;4.78;;;;;;;-145.18;100.00;46867.44;4875548;29;20060;-83
2022/06/18 12:55:23;;;;;;;19.05;4.72;;;;;;;-145.18;100.00;46865.50;4875687;29;20029;-80
2022/06/18 12:58:19;;;;;;;11.07;4.65;;;;;;;-145.18;100.00;46875.28;4875714;29;20036;-81
2022/06/18 13:00:44;;;;;;;;;;;;;;;-145.18;100.00;46865.50;4876415;29;20040;-81
2022/06/18 13:03:22;;;;;;;15.80;4.95;;;;;;;-145.18;100.00;46883.09;4875212;29;19968;-82
2022/06/18 13:05:51;;;;;;;13.45;5.03;;;;;;;-145.18;100.00;46900.66;4875942;29;20040;-81
2022/06/18 13:08:45;;;;;;;16.33;5.00;;;;;;;-145.18;100.00;46900.66;4875778;29;20475;-81
2022/06/18 13:11:13;;;;;;;15.93;4.47;;;;;;;-145.18;100.00;46881.13;4873425;29;20084;-81
2022/06/18 13:13:39;;;;;;;17.20;4.78;;;;;;;-145.18;100.00;46842.06;4876138;29;20033;-81
2022/06/18 13:16:13;;;;;;;14.05;4.22;;;;;;;-145.18;100.00;46871.38;4875224;29;20017;-80
2022/06/18 13:18:46;;;;;;;16.02;5.20;;;;;;;-145.18;100.00;46888.94;4875773;29;20025;-80
2022/06/18 13:21:12;;;;;;;18.17;5.47;;;;;;;-145.18;100.00;46898.72;4874847;29;20037;-81
2022/06/18 13:29:25;;;;;;;15.63;5.45;;;;;;;-145.18;100.00;46881.13;4875736;29;20056;-81
2022/06/18 13:32:02;;;;;;;13.80;5.50;;;;;;;-145.18;100.00;46873.31;4876021;29;20025;-81
2022/06/18 13:34:41;;;;;;;10.55;4.85;;;;;;;-145.18;100.00;46859.63;4875270;29;20048;-81
2022/06/18 13:37:30;;;;;;;12.73;4.78;;;;;;;-145.18;100.00;46885.03;4875220;29;20045;-81